createdAt,value
2023-02-16T00:00:48.690Z,102399.38
2023-02-16T00:03:21.677Z,102401.25
2023-02-16T00:05:51.769Z,102403.44
2023-02-16T00:08:20.157Z,102393.84
2023-02-16T00:11:02.688Z,102398.97
2023-02-16T00:13:48.070Z,102397.13
2023-02-16T00:16:19.667Z,102402.00
2023-02-16T00:18:49.794Z,102399.59
2023-02-16T00:21:19.781Z,102411.72
2023-02-16T00:23:48.778Z,102405.59
2023-02-16T00:26:19.715Z,102396.22
2023-02-16T00:28:50.349Z,102406.97
2023-02-16T00:31:21.483Z,102393.03
2023-02-16T00:33:51.857Z,102393.88
2023-02-16T00:36:20.459Z,102387.22
2023-02-16T00:38:49.087Z,102381.56
2023-02-16T00:41:34.755Z,102375.22
2023-02-16T00:44:03.124Z,102378.75
2023-02-16T00:46:31.814Z,102371.50
2023-02-16T00:49:01.553Z,102372.09
2023-02-16T00:51:29.898Z,102381.78
2023-02-16T00:53:58.239Z,102370.00
2023-02-16T00:56:26.675Z,102381.28
2023-02-16T00:58:55.385Z,102375.91
2023-02-16T01:01:31.050Z,102379.97
2023-02-16T01:04:02.996Z,102385.06
2023-02-16T01:06:48.785Z,102384.31
2023-02-16T01:09:37.055Z,102385.88
2023-02-16T01:12:10.673Z,102383.50
2023-02-16T01:14:39.093Z,102387.28
2023-02-16T01:17:07.454Z,102377.63
2023-02-16T01:19:37.127Z,102379.47
2023-02-16T01:22:05.777Z,102380.31
2023-02-16T01:24:34.062Z,102392.09
2023-02-16T01:27:02.579Z,102384.09
2023-02-16T01:29:30.996Z,102378.78
2023-02-16T01:31:59.433Z,102379.34
2023-02-16T01:34:27.857Z,102381.53
2023-02-16T01:36:57.579Z,102381.84
2023-02-16T01:39:25.943Z,102388.56
2023-02-16T01:42:24.810Z,102377.31
2023-02-16T01:44:57.183Z,102373.06
2023-02-16T01:47:39.063Z,102387.28
2023-02-16T01:50:21.963Z,102383.03
2023-02-16T01:52:58.691Z,102376.38
2023-02-16T01:55:31.093Z,102379.88
2023-02-16T01:58:06.118Z,102378.50
2023-02-16T02:01:22.281Z,102375.59
2023-02-16T02:04:08.073Z,102373.50
2023-02-16T02:06:36.924Z,102374.03
2023-02-16T02:09:13.126Z,102358.47
2023-02-16T02:11:48.317Z,102364.16
2023-02-16T02:14:20.405Z,102366.56
2023-02-16T02:16:57.471Z,102355.03
2023-02-16T02:19:26.736Z,102343.75
2023-02-16T02:22:41.413Z,102350.19
2023-02-16T02:25:54.097Z,102340.25
2023-02-16T02:28:28.730Z,102344.56
2023-02-16T02:31:07.799Z,102341.06
2023-02-16T02:33:53.010Z,102332.19
2023-02-16T02:36:34.653Z,102324.94
2023-02-16T02:39:16.530Z,102312.59
2023-02-16T02:42:05.966Z,102301.88
2023-02-16T02:44:43.431Z,102306.69
2023-02-16T02:47:11.800Z,102293.78
2023-02-16T02:49:40.126Z,102300.75
2023-02-16T02:52:08.746Z,102306.63
2023-02-16T02:54:57.947Z,102305.31
2023-02-16T02:57:49.749Z,102301.53
2023-02-16T03:00:44.095Z,102309.25
2023-02-16T03:03:17.654Z,102290.47
2023-02-16T03:05:53.319Z,102294.47
2023-02-16T03:08:25.850Z,102295.84
2023-02-16T03:11:16.583Z,102282.66
2023-02-16T03:13:50.848Z,102292.34
2023-02-16T03:16:27.224Z,102286.13
2023-02-16T03:19:14.982Z,102292.59
2023-02-16T03:22:01.591Z,102277.28
2023-02-16T03:24:50.399Z,102281.84
2023-02-16T03:27:43.009Z,102274.88
2023-02-16T03:30:14.470Z,102284.00
2023-02-16T03:32:45.783Z,102285.09
2023-02-16T03:35:14.429Z,102270.59
2023-02-16T03:37:44.167Z,102279.75
2023-02-16T03:40:32.818Z,102284.06
2023-02-16T03:43:04.032Z,102271.22
2023-02-16T03:45:35.141Z,102270.69
2023-02-16T03:48:05.156Z,102273.91
2023-02-16T03:50:33.653Z,102276.34
2023-02-16T03:53:07.838Z,102276.13
2023-02-16T03:55:37.481Z,102275.31
2023-02-16T03:58:07.290Z,102268.56
2023-02-16T04:00:37.260Z,102271.84
2023-02-16T04:03:08.897Z,102282.56
2023-02-16T04:05:37.701Z,102268.59
2023-02-16T04:08:06.995Z,102276.66
2023-02-16T04:10:36.628Z,102276.94
2023-02-16T04:13:04.614Z,102282.56
2023-02-16T04:15:33.983Z,102284.75
2023-02-16T04:18:02.869Z,102287.94
2023-02-16T04:20:35.530Z,102279.66
2023-02-16T04:23:04.920Z,102283.72
2023-02-16T04:25:33.440Z,102290.16
2023-02-16T04:28:01.970Z,102278.34
2023-02-16T04:30:33.091Z,102272.47
2023-02-16T04:33:01.479Z,102280.50
2023-02-16T04:35:29.983Z,102278.91
2023-02-16T04:37:59.605Z,102281.06
2023-02-16T04:40:28.058Z,102284.81
2023-02-16T04:42:56.438Z,102280.78
2023-02-16T04:45:24.859Z,102284.88
2023-02-16T04:47:53.309Z,102288.06
2023-02-16T04:50:21.903Z,102286.47
2023-02-16T04:52:50.277Z,102289.72
2023-02-16T04:55:20.137Z,102291.31
2023-02-16T04:57:48.524Z,102298.00
2023-02-16T05:00:17.617Z,102297.47
2023-02-16T05:02:46.048Z,102291.34
2023-02-16T05:05:15.016Z,102298.84
2023-02-16T05:07:43.376Z,102302.03
2023-02-16T05:10:12.210Z,102299.09
2023-02-16T05:12:59.513Z,102290.75
2023-02-16T05:15:28.017Z,102302.03
2023-02-16T05:17:56.433Z,102291.56
2023-02-16T05:20:45.503Z,102278.41
2023-02-16T05:23:13.900Z,102283.75
2023-02-16T05:25:42.202Z,102284.00
2023-02-16T05:28:11.965Z,102283.72
2023-02-16T05:30:40.277Z,102271.94
2023-02-16T05:33:08.604Z,102284.78
2023-02-16T05:35:37.088Z,102277.25
2023-02-16T05:38:05.513Z,102291.19
2023-02-16T05:40:33.849Z,102292.53
2023-02-16T05:43:02.161Z,102286.88
2023-02-16T05:45:31.880Z,102283.13
2023-02-16T05:48:00.260Z,102271.56
2023-02-16T05:50:28.578Z,102271.84
2023-02-16T05:52:56.926Z,102270.16
2023-02-16T05:55:25.291Z,102273.63
2023-02-16T05:57:53.633Z,102272.28
2023-02-16T06:00:22.388Z,102274.66
2023-02-16T06:02:52.119Z,102280.53
2023-02-16T06:05:20.682Z,102285.59
2023-02-16T06:07:48.995Z,102266.97
2023-02-16T06:10:17.492Z,102272.03
2023-02-16T06:12:46.128Z,102269.81
2023-02-16T06:15:14.502Z,102263.63
2023-02-16T06:17:44.609Z,102263.34
2023-02-16T06:20:14.760Z,102253.34
2023-02-16T06:22:43.043Z,102257.88
2023-02-16T06:25:12.425Z,102257.53
2023-02-16T06:27:40.679Z,102253.44
2023-02-16T06:30:10.379Z,102250.41
2023-02-16T06:32:39.350Z,102253.84
2023-02-16T06:35:10.162Z,102257.00
2023-02-16T06:37:39.947Z,102258.84
2023-02-16T06:40:10.369Z,102271.44
2023-02-16T06:42:38.957Z,102282.94
2023-02-16T06:45:08.804Z,102294.44
2023-02-16T06:47:38.268Z,102277.50
2023-02-16T06:50:14.543Z,102294.31
2023-02-16T06:52:46.034Z,102276.59
2023-02-16T06:55:14.676Z,102270.91
2023-02-16T06:57:43.052Z,102272.53
2023-02-16T07:00:12.818Z,102269.56
2023-02-16T07:02:43.335Z,102276.56
2023-02-16T07:05:11.747Z,102277.63
2023-02-16T07:07:40.205Z,102282.47
2023-02-16T07:10:11.204Z,102278.19
2023-02-16T07:12:39.578Z,102287.56
2023-02-16T07:15:09.799Z,102276.81
2023-02-16T07:17:38.384Z,102280.84
2023-02-16T07:20:08.746Z,102280.84
2023-02-16T07:22:37.101Z,102296.41
2023-02-16T07:25:06.192Z,102299.84
2023-02-16T07:27:35.976Z,102304.69
2023-02-16T07:30:04.944Z,102309.50
2023-02-16T07:32:33.349Z,102301.41
2023-02-16T07:35:01.975Z,102293.34
2023-02-16T07:37:30.383Z,102300.56
2023-02-16T07:39:58.772Z,102292.44
2023-02-16T07:42:31.253Z,102299.91
2023-02-16T07:45:01.333Z,102308.75
2023-02-16T07:47:29.770Z,102301.97
2023-02-16T07:49:58.099Z,102316.44
2023-02-16T07:52:31.202Z,102309.72
2023-02-16T07:54:59.729Z,102316.88
2023-02-16T07:57:28.883Z,102321.72
2023-02-16T07:59:57.922Z,102308.25
2023-02-16T08:02:28.200Z,102312.50
2023-02-16T08:04:56.767Z,102305.16
2023-02-16T08:07:25.210Z,102299.47
2023-02-16T08:09:53.623Z,102303.19
2023-02-16T08:12:22.534Z,102302.09
2023-02-16T08:14:52.042Z,102298.88
2023-02-16T08:17:20.520Z,102298.78
2023-02-16T08:19:50.986Z,102304.63
2023-02-16T08:22:19.678Z,102307.22
2023-02-16T08:24:48.037Z,102303.41
2023-02-16T08:27:16.428Z,102303.81
2023-02-16T08:29:44.824Z,102299.16
2023-02-16T08:32:13.717Z,102299.88
2023-02-16T08:34:43.539Z,102312.09
2023-02-16T08:37:14.997Z,102295.47
2023-02-16T08:39:43.910Z,102293.59
2023-02-16T08:42:14.326Z,102300.28
2023-02-16T08:44:43.374Z,102299.13
2023-02-16T08:47:12.013Z,102308.91
2023-02-16T08:49:40.834Z,102303.31
2023-02-16T08:52:10.322Z,102305.72
2023-02-16T08:54:41.195Z,102317.91
2023-02-16T08:57:09.986Z,102315.22
2023-02-16T08:59:38.322Z,102309.03
2023-02-16T09:02:06.940Z,102316.81
2023-02-16T09:04:36.801Z,102328.72
2023-02-16T09:07:05.632Z,102323.81
2023-02-16T09:09:34.448Z,102326.97
2023-02-16T09:12:04.374Z,102321.56
2023-02-16T09:14:33.113Z,102328.88
2023-02-16T09:17:01.990Z,102337.38
2023-02-16T09:19:30.336Z,102341.41
2023-02-16T09:21:58.712Z,102341.56
2023-02-16T09:24:27.076Z,102345.06
2023-02-16T09:26:55.491Z,102345.06
2023-02-16T09:29:25.198Z,102340.69
2023-02-16T09:31:55.785Z,102340.88
2023-02-16T09:34:26.877Z,102345.09
2023-02-16T09:36:56.089Z,102336.66
2023-02-16T09:39:24.436Z,102339.84
2023-02-16T09:42:12.905Z,102343.19
2023-02-16T09:44:53.137Z,102340.47
2023-02-16T09:47:29.421Z,102345.09
2023-02-16T09:50:01.654Z,102339.34
2023-02-16T09:52:37.789Z,102338.25
2023-02-16T09:55:10.092Z,102348.44
2023-02-16T09:57:57.264Z,102358.16
2023-02-16T10:00:45.017Z,102355.16
2023-02-16T10:03:41.557Z,102363.41
2023-02-16T10:06:44.143Z,102366.34
2023-02-16T10:09:16.496Z,102371.75
2023-02-16T10:11:51.047Z,102368.25
2023-02-16T10:14:30.788Z,102372.22
2023-02-16T10:17:13.387Z,102369.53
2023-02-16T10:19:48.128Z,102367.44
2023-02-16T10:22:24.809Z,102375.72
2023-02-16T10:25:01.961Z,102366.56
2023-02-16T10:27:39.889Z,102358.47
2023-02-16T10:30:16.779Z,102364.31
2023-02-16T10:32:57.853Z,102357.81
2023-02-16T10:35:36.454Z,102344.22
2023-02-16T10:38:12.574Z,102337.72
2023-02-16T10:40:52.073Z,102338.97
2023-02-16T10:43:38.721Z,102330.06
2023-02-16T10:46:07.494Z,102321.56
2023-02-16T10:48:37.568Z,102327.44
2023-02-16T10:51:10.392Z,102325.22
2023-02-16T10:53:45.304Z,102332.91
2023-02-16T10:56:49.637Z,102342.03
2023-02-16T10:59:22.303Z,102345.69
2023-02-16T11:01:54.178Z,102348.91
2023-02-16T11:04:38.395Z,102336.19
2023-02-16T11:07:10.631Z,102333.75
2023-02-16T11:09:40.236Z,102321.88
2023-02-16T11:12:26.901Z,102333.00
2023-02-16T11:15:03.179Z,102330.91
2023-02-16T11:17:34.455Z,102346.19
2023-02-16T11:20:09.531Z,102339.16
2023-02-16T11:22:41.548Z,102331.56
2023-02-16T11:25:25.140Z,102336.97
2023-02-16T11:27:58.164Z,102323.47
2023-02-16T11:30:34.686Z,102320.94
2023-02-16T11:33:05.739Z,102328.91
2023-02-16T11:35:43.806Z,102329.63
2023-02-16T11:38:31.049Z,102328.84
2023-02-16T11:41:01.377Z,102316.50
2023-02-16T11:43:33.883Z,102304.63
2023-02-16T11:46:07.241Z,102303.53
2023-02-16T11:48:36.563Z,102301.06
2023-02-16T11:51:09.661Z,102310.31
2023-02-16T11:53:42.361Z,102312.09
2023-02-16T11:56:23.626Z,102315.28
2023-02-16T11:59:17.208Z,102326.91
2023-02-16T12:02:24.384Z,102319.25
2023-02-16T12:05:11.090Z,102313.97
2023-02-16T12:07:52.984Z,102317.50
2023-02-16T12:10:27.791Z,102328.13
2023-02-16T12:13:04.128Z,102321.72
2023-02-16T12:15:42.381Z,102302.44
2023-02-16T12:18:29.041Z,102307.22
2023-02-16T12:21:04.715Z,102315.16
2023-02-16T12:23:43.042Z,102311.97
2023-02-16T12:26:34.262Z,102311.47
2023-02-16T12:29:16.367Z,102297.47
2023-02-16T12:32:04.405Z,102291.09
2023-02-16T12:34:48.634Z,102289.66
2023-02-16T12:37:27.830Z,102284.13
2023-02-16T12:40:12.695Z,102274.44
2023-02-16T12:43:04.046Z,102274.81
2023-02-16T12:45:38.909Z,102264.59
2023-02-16T12:48:26.209Z,102262.41
2023-02-16T12:50:56.666Z,102255.88
2023-02-16T12:53:30.374Z,102262.09
2023-02-16T12:56:04.030Z,102271.47
2023-02-16T12:58:37.518Z,102282.41
2023-02-16T13:01:13.963Z,102266.31
2023-02-16T13:03:52.320Z,102258.84
2023-02-16T13:06:26.567Z,102257.69
2023-02-16T13:09:07.351Z,102228.69
2023-02-16T13:11:44.293Z,102221.69
2023-02-16T13:14:18.981Z,102228.81
2023-02-16T13:16:52.246Z,102229.78
2023-02-16T13:19:20.751Z,102219.31
2023-02-16T13:22:24.385Z,102217.63
2023-02-16T13:25:14.865Z,102213.50
2023-02-16T13:27:56.600Z,102199.22
2023-02-16T13:30:54.552Z,102195.25
2023-02-16T13:33:40.946Z,102197.66
2023-02-16T13:36:30.963Z,102194.78
2023-02-16T13:39:37.461Z,102196.22
2023-02-16T13:42:49.209Z,102190.63
2023-02-16T13:45:22.579Z,102193.78
2023-02-16T13:47:53.354Z,102190.41
2023-02-16T13:50:32.120Z,102193.44
2023-02-16T13:53:17.788Z,102194.66
2023-02-16T13:55:47.119Z,102194.47
2023-02-16T13:58:34.159Z,102193.06
2023-02-16T14:01:39.964Z,102183.81
2023-02-16T14:04:15.488Z,102176.09
2023-02-16T14:06:44.143Z,102161.59
2023-02-16T14:09:48.860Z,102163.47
2023-02-16T14:12:27.361Z,102146.22
2023-02-16T14:15:02.584Z,102142.84
2023-02-16T14:17:35.743Z,102138.34
2023-02-16T14:20:11.841Z,102149.69
2023-02-16T14:22:51.052Z,102153.66
2023-02-16T14:25:46.299Z,102146.75
2023-02-16T14:29:10.205Z,102136.38
2023-02-16T14:31:48.180Z,102129.50
2023-02-16T14:34:29.967Z,102115.78
2023-02-16T14:37:46.166Z,102102.31
2023-02-16T14:40:23.298Z,102102.66
2023-02-16T14:42:58.367Z,102103.44
2023-02-16T14:46:08.697Z,102094.50
2023-02-16T14:49:28.647Z,102096.88
2023-02-16T14:52:37.165Z,102087.78
2023-02-16T14:55:49.096Z,102090.88
2023-02-16T14:58:31.240Z,102096.56
2023-02-16T15:01:07.505Z,102095.44
2023-02-16T15:03:46.467Z,102099.38
2023-02-16T15:06:24.318Z,102093.94
2023-02-16T15:08:58.644Z,102098.63
2023-02-16T15:11:33.194Z,102089.69
2023-02-16T15:14:11.123Z,102082.34
2023-02-16T15:16:43.308Z,102086.50
2023-02-16T15:19:21.646Z,102081.53
2023-02-16T15:22:10.334Z,102092.81
2023-02-16T15:24:39.990Z,102089.69
2023-02-16T15:27:09.681Z,102087.31
2023-02-16T15:29:38.701Z,102087.13
2023-02-16T15:32:08.837Z,102086.72
2023-02-16T15:34:40.331Z,102086.25
2023-02-16T15:37:26.580Z,102084.97
2023-02-16T15:40:23.096Z,102081.81
2023-02-16T15:42:46.587Z,102078.66
2023-02-16T15:45:37.775Z,102077.84
2023-02-16T15:48:24.883Z,102072.88
2023-02-16T15:50:56.618Z,102073.69
2023-02-16T15:53:34.885Z,102072.19
2023-02-16T15:56:18.458Z,102080.03
2023-02-16T15:58:46.846Z,102073.28
2023-02-16T16:01:31.531Z,102076.44
2023-02-16T16:04:03.323Z,102074.53
2023-02-16T16:06:41.116Z,102072.25
2023-02-16T16:09:25.485Z,102081.19
2023-02-16T16:11:59.546Z,102068.41
2023-02-16T16:14:28.983Z,102067.19
2023-02-16T16:16:57.710Z,102068.63
2023-02-16T16:19:34.815Z,102067.00
2023-02-16T16:22:04.782Z,102073.56
2023-02-16T16:24:39.306Z,102067.34
2023-02-16T16:27:12.462Z,102071.66
2023-02-16T16:29:44.224Z,102065.44
2023-02-16T16:32:21.286Z,102065.00
2023-02-16T16:34:50.623Z,102058.78
2023-02-16T16:37:28.228Z,102056.41
2023-02-16T16:40:05.350Z,102052.09
2023-02-16T16:42:39.307Z,102052.75
2023-02-16T16:45:38.778Z,102054.22
2023-02-16T16:48:17.792Z,102058.88
2023-02-16T16:50:47.391Z,102054.06
2023-02-16T16:53:41.592Z,102050.13
2023-02-16T16:56:13.840Z,102048.22
2023-02-16T16:58:45.008Z,102056.34
2023-02-16T17:01:14.285Z,102057.47
2023-02-16T17:03:43.006Z,102056.34
2023-02-16T17:06:14.098Z,102053.97
2023-02-16T17:08:42.822Z,102053.16
2023-02-16T17:11:22.374Z,102048.38
2023-02-16T17:13:54.696Z,102049.97
2023-02-16T17:16:28.728Z,102051.56
2023-02-16T17:18:57.251Z,102055.06
2023-02-16T17:21:25.782Z,102046.94
2023-02-16T17:23:54.056Z,102045.34
2023-02-16T17:26:22.804Z,102051.56
2023-02-16T17:28:52.593Z,102056.69
2023-02-16T17:31:20.979Z,102060.19
2023-02-16T17:33:49.317Z,102064.00
2023-02-16T17:36:18.338Z,102052.69
2023-02-16T17:38:46.976Z,102060.03
2023-02-16T17:41:22.731Z,102068.50
2023-02-16T17:43:52.798Z,102066.44
2023-02-16T17:46:23.341Z,102066.00
2023-02-16T17:48:55.153Z,102077.63
2023-02-16T17:51:25.628Z,102069.81
2023-02-16T17:53:54.518Z,102062.06
2023-02-16T17:56:25.335Z,102074.00
2023-02-16T17:58:55.319Z,102073.53
2023-02-16T18:01:24.081Z,102080.88
2023-02-16T18:03:53.137Z,102088.88
2023-02-16T18:06:28.144Z,102087.63
2023-02-16T18:08:57.939Z,102078.22
2023-02-16T18:11:26.347Z,102086.22
2023-02-16T18:13:56.022Z,102078.25
2023-02-16T18:16:28.436Z,102084.69
2023-02-16T18:18:58.135Z,102078.78
2023-02-16T18:21:26.547Z,102077.88
2023-02-16T18:23:54.926Z,102078.06
2023-02-16T18:26:23.826Z,102073.94
2023-02-16T18:28:52.217Z,102072.22
2023-02-16T18:31:22.112Z,102071.75
2023-02-16T18:33:50.564Z,102066.97
2023-02-16T18:36:19.313Z,102081.97
2023-02-16T18:38:47.710Z,102076.88
2023-02-16T18:41:16.081Z,102076.88
2023-02-16T18:43:44.451Z,102079.59
2023-02-16T18:46:12.793Z,102070.88
2023-02-16T18:48:43.056Z,102073.41
2023-02-16T18:51:12.959Z,102076.28
2023-02-16T18:53:41.584Z,102081.59
2023-02-16T18:56:14.608Z,102082.06
2023-02-16T18:58:43.500Z,102074.13
2023-02-16T19:01:15.621Z,102070.16
2023-02-16T19:03:45.702Z,102085.47
2023-02-16T19:06:14.137Z,102081.50
2023-02-16T19:08:42.659Z,102062.84
2023-02-16T19:11:11.191Z,102069.25
2023-02-16T19:13:39.580Z,102069.44
2023-02-16T19:16:08.658Z,102056.84
2023-02-16T19:18:37.220Z,102063.72
2023-02-16T19:21:08.980Z,102055.09
2023-02-16T19:23:37.901Z,102047.31
2023-02-16T19:26:08.324Z,102050.34
2023-02-16T19:28:36.706Z,102054.16
2023-02-16T19:31:08.175Z,102050.19
2023-02-16T19:33:36.867Z,102061.66
2023-02-16T19:36:10.199Z,102056.25
2023-02-16T19:38:39.139Z,102057.03
2023-02-16T19:41:11.580Z,102055.13
2023-02-16T19:43:40.008Z,102055.94
2023-02-16T19:46:09.175Z,102065.63
2023-02-16T19:48:37.727Z,102062.63
2023-02-16T19:51:09.176Z,102063.44
2023-02-16T19:53:39.512Z,102055.31
2023-02-16T19:56:10.038Z,102052.25
2023-02-16T19:58:38.820Z,102065.78
2023-02-16T20:01:09.150Z,102058.94
2023-02-16T20:03:37.470Z,102058.13
2023-02-16T20:06:16.746Z,102045.72
2023-02-16T20:08:46.282Z,102061.34
2023-02-16T20:11:15.687Z,102065.94
2023-02-16T20:13:44.398Z,102062.56
2023-02-16T20:16:14.361Z,102060.34
2023-02-16T20:18:43.366Z,102049.03
2023-02-16T20:21:17.000Z,102040.16
2023-02-16T20:23:46.537Z,102045.91
2023-02-16T20:26:18.939Z,102050.19
2023-02-16T20:28:48.013Z,102049.03
2023-02-16T20:31:25.214Z,102037.44
2023-02-16T20:33:54.510Z,102038.22
2023-02-16T20:36:24.264Z,102032.03
2023-02-16T20:38:52.638Z,102034.75
2023-02-16T20:41:21.893Z,102032.03
2023-02-16T20:43:50.657Z,102028.97
2023-02-16T20:46:20.583Z,102025.47
2023-02-16T20:48:50.131Z,102031.69
2023-02-16T20:51:19.178Z,102028.97
2023-02-16T20:53:49.247Z,102025.13
2023-02-16T20:56:21.559Z,102037.56
2023-02-16T20:58:51.920Z,102038.69
2023-02-16T21:01:25.202Z,102031.34
2023-02-16T21:03:55.221Z,102031.69
2023-02-16T21:06:24.628Z,102033.59
2023-02-16T21:08:55.699Z,102027.38
2023-02-16T21:11:24.085Z,102042.97
2023-02-16T21:13:53.083Z,102032.16
2023-02-16T21:16:21.857Z,102028.66
2023-02-16T21:18:50.403Z,102025.13
2023-02-16T21:21:19.039Z,102026.25
2023-02-16T21:23:50.952Z,102028.16
2023-02-16T21:26:23.922Z,102023.56
2023-02-16T21:28:53.325Z,102011.13
2023-02-16T21:31:24.149Z,102010.81
2023-02-16T21:33:53.255Z,102006.69
2023-02-16T21:36:24.981Z,102012.72
2023-02-16T21:38:53.531Z,102008.09
2023-02-16T21:41:25.540Z,102015.44
2023-02-16T21:43:58.103Z,102016.56
2023-02-16T21:46:26.956Z,102018.13
2023-02-16T21:48:55.220Z,102018.94
2023-02-16T21:51:26.601Z,102012.91
2023-02-16T21:53:56.186Z,102003.47
2023-02-16T21:56:33.520Z,102019.09
2023-02-16T21:59:02.381Z,102021.81
2023-02-16T22:01:33.845Z,102021.50
2023-02-16T22:04:03.479Z,102013.00
2023-02-16T22:06:34.921Z,102012.22
2023-02-16T22:09:06.578Z,102011.09
2023-02-16T22:11:36.321Z,102009.69
2023-02-16T22:14:04.880Z,102006.97
2023-02-16T22:16:35.046Z,102004.25
2023-02-16T22:19:07.485Z,101996.59
2023-02-16T22:21:37.697Z,102001.69
2023-02-16T22:24:06.959Z,102000.91
2023-02-16T22:26:37.266Z,102004.06
2023-02-16T22:29:08.219Z,102007.25
2023-02-16T22:31:37.124Z,101997.53
2023-02-16T22:34:08.583Z,101992.59
2023-02-16T22:36:37.579Z,101994.19
2023-02-16T22:39:06.487Z,101994.66
2023-02-16T22:41:36.542Z,101986.19
2023-02-16T22:44:05.955Z,101973.91
2023-02-16T22:46:35.854Z,101960.38
2023-02-16T22:49:04.617Z,101973.91
2023-02-16T22:51:32.989Z,101973.28
2023-02-16T22:54:03.107Z,101971.47
2023-02-16T22:56:33.344Z,101975.31
2023-02-16T22:59:03.296Z,101973.06
2023-02-16T23:01:32.269Z,101969.25
2023-02-16T23:04:02.584Z,101977.84
2023-02-16T23:06:33.312Z,101979.88
2023-02-16T23:09:07.459Z,101980.22
2023-02-16T23:11:37.205Z,101997.72
2023-02-16T23:14:16.287Z,101995.50
2023-02-16T23:16:45.730Z,101996.31
2023-02-16T23:19:16.604Z,102002.06
2023-02-16T23:21:45.466Z,102011.75
2023-02-16T23:24:17.226Z,101997.44
2023-02-16T23:26:46.260Z,101997.09
2023-02-16T23:29:16.585Z,101992.13
2023-02-16T23:31:47.667Z,101992.81
2023-02-16T23:34:16.874Z,102007.94
2023-02-16T23:36:45.948Z,102002.06
2023-02-16T23:39:17.854Z,102012.09
2023-02-16T23:41:46.421Z,101995.84
2023-02-16T23:44:16.566Z,101991.03
2023-02-16T23:46:44.968Z,101996.47
2023-02-16T23:49:13.483Z,101998.06
2023-02-16T23:51:41.961Z,101990.72
2023-02-16T23:54:11.567Z,101980.38
2023-02-16T23:56:42.248Z,101972.72
2023-02-16T23:59:10.949Z,101969.31
